Time;durP1;ratioP1;P1;durP2;ratioP2;P2;SDS_P1;SDS_P2;PMS_P1;PMS_P2;Temp;Humidity;BMP_temperature;BMP_pressure;BME280_temperature;BME280_humidity;BME280_pressure;Samples;Min_cycle;Max_cycle;Signal;HPM_P1;HPM_P2
2022/09/10 00:00:23;;;;;;;3.07;2.30;;;;;;;13.26;100.00;99793.28;4982931;28;21250;-61
2022/09/10 00:02:48;;;;;;;3.80;2.40;;;;;;;13.26;100.00;99790.69;5002984;28;20215;-61
2022/09/10 00:05:13;;;;;;;4.60;2.57;;;;;;;13.23;100.00;99790.00;4988163;28;20639;-62
2022/09/10 00:07:39;;;;;;;4.00;2.60;;;;;;;13.19;100.00;99785.97;4987160;28;20184;-65
2022/09/10 00:10:04;;;;;;;3.50;2.10;;;;;;;13.25;100.00;99792.47;4986706;28;20195;-63
2022/09/10 00:12:30;;;;;;;2.70;2.27;;;;;;;13.21;100.00;99793.63;4989158;28;20701;-62
2022/09/10 00:14:55;;;;;;;2.97;2.50;;;;;;;13.14;100.00;99792.41;4992939;28;20706;-61
2022/09/10 00:17:21;;;;;;;3.13;2.43;;;;;;;13.03;100.00;99788.78;4992705;28;20199;-61
2022/09/10 00:19:46;;;;;;;5.17;3.10;;;;;;;13.01;100.00;99788.09;4991511;28;20187;-62
2022/09/10 00:22:12;;;;;;;4.13;2.67;;;;;;;13.00;100.00;99789.03;4981615;28;20242;-62
2022/09/10 00:24:37;;;;;;;4.00;2.60;;;;;;;12.95;100.00;99791.09;4991452;28;20219;-62
2022/09/10 00:27:03;;;;;;;5.27;2.20;;;;;;;13.01;100.00;99784.66;4989472;28;20186;-62
2022/09/10 00:29:28;;;;;;;5.37;2.47;;;;;;;13.05;100.00;99788.72;4993063;28;20187;-63
2022/09/10 00:31:54;;;;;;;7.67;3.30;;;;;;;13.03;100.00;99795.72;4992267;28;20238;-62
2022/09/10 00:34:19;;;;;;;4.77;2.90;;;;;;;13.02;100.00;99796.66;4991344;28;20627;-62
2022/09/10 00:36:45;;;;;;;4.50;2.60;;;;;;;13.01;100.00;99797.56;4998747;28;20184;-62
2022/09/10 00:39:17;;;;;;;5.33;2.33;;;;;;;12.94;100.00;99799.78;4989983;28;20188;-61
2022/09/10 00:41:44;;;;;;;5.43;2.60;;;;;;;12.95;100.00;99793.69;4994996;28;20233;-62
2022/09/10 00:44:40;;;;;;;2.93;2.60;;;;;;;12.80;100.00;99799.88;4990187;28;20289;-62
2022/09/10 00:47:29;;;;;;;4.37;2.80;;;;;;;12.90;100.00;99790.59;4991936;28;20206;-62
2022/09/10 00:50:02;;;;;;;5.03;2.90;;;;;;;12.86;100.00;99799.47;4993118;28;20548;-62
2022/09/10 00:52:28;;;;;;;4.53;3.13;;;;;;;12.85;100.00;99792.66;4982045;28;20215;-62
2022/09/10 00:54:54;;;;;;;3.70;3.10;;;;;;;13.00;100.00;99795.91;4988111;28;20671;-62
2022/09/10 00:57:22;;;;;;;4.50;2.63;;;;;;;13.10;100.00;99796.09;4993318;28;20187;-62
2022/09/10 00:59:59;;;;;;;5.03;3.13;;;;;;;13.22;100.00;99792.66;4991824;28;20289;-61
2022/09/10 01:02:24;;;;;;;7.67;3.33;;;;;;;13.35;100.00;99790.06;4998146;28;20226;-63
2022/09/10 01:04:51;;;;;;;3.57;3.03;;;;;;;13.32;100.00;99805.75;4991686;28;20214;-62
2022/09/10 01:07:18;;;;;;;4.03;2.67;;;;;;;13.23;100.00;99789.16;4991774;28;20206;-62
2022/09/10 01:09:43;;;;;;;4.23;2.70;;;;;;;13.02;100.00;99787.16;4991733;28;20678;-62
2022/09/10 01:12:45;;;;;;;5.77;2.80;;;;;;;13.12;100.00;99784.75;4981188;28;20235;-63
2022/09/10 01:15:39;;;;;;;5.47;2.83;;;;;;;13.06;100.00;99790.34;4963971;28;20286;-63
2022/09/10 01:18:36;;;;;;;4.87;2.77;;;;;;;13.21;100.00;99780.72;4964656;28;20279;-64
2022/09/10 01:21:32;;;;;;;4.63;2.77;;;;;;;13.17;100.00;99790.44;4951841;28;20240;-62
2022/09/10 01:24:32;;;;;;;5.07;2.83;;;;;;;12.94;100.00;99783.44;4952833;28;20240;-65
2022/09/10 01:27:11;;;;;;;3.93;2.80;;;;;;;12.92;100.00;99778.41;4935277;29;20243;-61
2022/09/10 01:29:43;;;;;;;4.30;2.60;;;;;;;13.02;100.00;99783.75;4965379;28;20701;-62
2022/09/10 01:32:13;;;;;;;5.27;3.00;;;;;;;13.15;100.00;99792.28;4956312;28;20696;-62
2022/09/10 01:34:50;;;;;;;4.47;2.67;;;;;;;13.15;100.00;99787.13;4947434;28;20208;-62
2022/09/10 01:37:20;;;;;;;5.70;3.00;;;;;;;12.98;100.00;99788.28;4950764;28;20231;-62
2022/09/10 01:39:48;;;;;;;6.53;2.67;;;;;;;12.83;100.00;99786.78;4966195;28;20243;-61
2022/09/10 01:42:14;;;;;;;4.17;3.10;;;;;;;12.87;100.00;99785.63;4955712;28;20646;-63
2022/09/10 01:44:46;;;;;;;5.60;2.83;;;;;;;12.90;100.00;99796.56;4950048;28;20220;-62
2022/09/10 01:47:33;;;;;;;5.63;2.67;;;;;;;12.93;100.00;99789.56;4950054;28;20748;-62
2022/09/10 01:50:25;;;;;;;4.97;3.10;;;;;;;12.94;100.00;99788.59;4970276;28;20292;-62
2022/09/10 01:53:02;;;;;;;6.57;3.73;;;;;;;12.97;100.00;99796.97;4980310;28;20215;-62
2022/09/10 01:55:42;;;;;;;7.17;3.93;;;;;;;12.90;100.00;99793.19;4991547;28;20194;-62
2022/09/10 01:58:18;;;;;;;6.43;3.33;;;;;;;12.74;100.00;99786.47;4991109;28;20553;-62
2022/09/10 02:00:53;;;;;;;5.67;3.10;;;;;;;12.81;100.00;99794.63;4990979;28;20245;-62
2022/09/10 02:03:23;;;;;;;5.07;3.30;;;;;;;12.94;100.00;99781.69;4987460;28;20281;-61
2022/09/10 02:05:52;;;;;;;9.43;3.13;;;;;;;13.03;100.00;99778.47;4992104;28;20839;-62
2022/09/10 02:08:22;;;;;;;5.93;3.53;;;;;;;12.81;100.00;99773.97;4999140;28;20643;-61
2022/09/10 02:10:54;;;;;;;6.90;3.30;;;;;;;12.79;100.00;99770.69;4981176;28;20690;-62
2022/09/10 02:13:22;;;;;;;4.63;3.07;;;;;;;12.90;100.00;99768.19;4996085;28;20336;-63
2022/09/10 02:15:48;;;;;;;5.17;3.47;;;;;;;12.96;100.00;99763.50;4991214;28;20264;-62
2022/09/10 02:18:14;;;;;;;8.10;3.33;;;;;;;12.84;100.00;99753.13;4991154;28;20180;-62
2022/09/10 02:20:40;;;;;;;4.03;3.27;;;;;;;12.81;100.00;99760.25;4982155;28;20322;-62
2022/09/10 02:23:08;;;;;;;3.43;3.13;;;;;;;12.85;100.00;99759.94;4991538;28;20213;-62
2022/09/10 02:25:36;;;;;;;4.23;3.23;;;;;;;12.97;100.00;99760.00;4991572;28;20207;-62
2022/09/10 02:28:03;;;;;;;5.67;3.53;;;;;;;13.02;100.00;99753.59;4991127;28;20609;-62
2022/09/10 02:30:28;;;;;;;4.60;3.43;;;;;;;13.12;100.00;99758.91;5003429;28;20226;-63
2022/09/10 02:32:53;;;;;;;4.00;3.60;;;;;;;13.00;100.00;99752.03;4988609;28;20198;-63
2022/09/10 02:35:19;;;;;;;5.93;3.63;;;;;;;13.03;100.00;99764.75;4998669;28;20266;-62
2022/09/10 02:37:44;;;;;;;7.47;3.93;;;;;;;13.08;100.00;99763.50;5005475;28;20254;-63
2022/09/10 02:40:10;;;;;;;9.83;4.17;;;;;;;13.20;100.00;99753.22;4982978;28;20194;-63
2022/09/10 02:42:37;;;;;;;7.83;4.40;;;;;;;13.28;100.00;99760.44;4987775;28;20184;-62
2022/09/10 02:45:03;;;;;;;6.50;4.70;;;;;;;13.24;100.00;99760.63;4992340;28;20211;-62
2022/09/10 02:47:28;;;;;;;12.37;5.83;;;;;;;13.24;100.00;99763.22;4991737;28;20682;-62
2022/09/10 02:49:54;;;;;;;7.73;4.47;;;;;;;13.25;100.00;99758.88;4991076;28;20196;-62
2022/09/10 02:52:20;;;;;;;5.27;4.77;;;;;;;13.27;100.00;99759.59;4990440;28;20238;-64
2022/09/10 02:54:46;;;;;;;6.87;4.70;;;;;;;13.29;100.00;99762.88;4998889;28;20268;-62
2022/09/10 02:57:11;;;;;;;6.27;4.67;;;;;;;13.11;100.00;99753.88;4996040;28;20266;-62
2022/09/10 02:59:36;;;;;;;4.90;4.33;;;;;;;13.10;100.00;99765.13;4989683;28;20258;-64
2022/09/10 03:02:01;;;;;;;5.77;4.60;;;;;;;13.11;100.00;99759.03;4960987;28;20280;-62
2022/09/10 03:04:27;;;;;;;8.17;5.07;;;;;;;13.08;100.00;99757.50;5005055;28;20577;-63
2022/09/10 03:06:53;;;;;;;9.63;5.10;;;;;;;13.18;100.00;99768.00;4995119;28;20184;-62
2022/09/10 03:09:19;;;;;;;10.13;5.20;;;;;;;13.28;100.00;99763.81;4994730;28;20183;-67
2022/09/10 03:11:45;;;;;;;11.33;5.27;;;;;;;13.39;100.00;99769.06;4984199;28;20297;-64
2022/09/10 03:14:11;;;;;;;7.10;5.07;;;;;;;13.46;100.00;99768.63;5001521;28;20219;-63
2022/09/10 03:16:38;;;;;;;8.57;5.00;;;;;;;13.51;100.00;99769.97;4982715;28;20223;-62
2022/09/10 03:19:04;;;;;;;8.33;5.63;;;;;;;13.52;100.00;99771.63;4988474;28;20551;-62
2022/09/10 03:21:29;;;;;;;7.00;5.20;;;;;;;13.52;100.00;99763.03;4996636;28;20261;-63
2022/09/10 03:23:54;;;;;;;9.73;5.20;;;;;;;13.57;100.00;99768.69;4993148;28;20321;-64
2022/09/10 03:26:21;;;;;;;5.07;4.57;;;;;;;13.60;100.00;99767.66;4992949;28;20203;-63
2022/09/10 03:28:47;;;;;;;6.23;5.27;;;;;;;13.35;100.00;99767.63;4991979;28;20671;-64
2022/09/10 03:31:13;;;;;;;6.00;5.33;;;;;;;13.33;100.00;99763.50;4961623;28;20318;-63
2022/09/10 03:33:42;;;;;;;5.73;5.13;;;;;;;13.37;100.00;99770.97;4993602;28;20194;-63
2022/09/10 03:36:08;;;;;;;6.37;5.03;;;;;;;13.47;100.00;99759.94;4998946;28;20233;-62
2022/09/10 03:38:34;;;;;;;8.23;5.70;;;;;;;13.48;100.00;99757.28;4990483;28;20195;-63
2022/09/10 03:41:02;;;;;;;7.70;5.03;;;;;;;13.43;100.00;99771.44;4992496;28;20230;-62
2022/09/10 03:43:28;;;;;;;6.87;5.30;;;;;;;13.39;100.00;99757.94;5009468;28;20686;-63
2022/09/10 03:45:54;;;;;;;11.63;5.07;;;;;;;13.24;100.00;99764.97;4993895;28;20249;-62
2022/09/10 03:48:20;;;;;;;4.97;4.57;;;;;;;13.29;100.00;99765.47;4993908;28;20191;-63
2022/09/10 03:50:46;;;;;;;10.97;5.40;;;;;;;13.24;100.00;99762.41;4988564;28;20280;-63
2022/09/10 03:53:13;;;;;;;7.30;5.10;;;;;;;13.27;100.00;99758.78;5001366;28;20214;-63
2022/09/10 03:55:42;;;;;;;7.33;6.00;;;;;;;13.25;100.00;99753.72;4990062;28;20176;-63
2022/09/10 03:58:07;;;;;;;6.20;5.30;;;;;;;13.13;100.00;99752.00;4992653;28;20187;-63
2022/09/10 04:00:33;;;;;;;7.87;6.33;;;;;;;13.17;100.00;99753.44;4984041;28;20288;-63
2022/09/10 04:02:59;;;;;;;7.47;5.73;;;;;;;13.16;100.00;99755.19;5000558;28;20325;-63
2022/09/10 04:05:26;;;;;;;7.77;6.07;;;;;;;13.18;100.00;99762.84;5003438;28;20253;-63
2022/09/10 04:07:53;;;;;;;8.57;6.10;;;;;;;13.22;100.00;99759.09;4992416;28;20195;-63
2022/09/10 04:10:19;;;;;;;6.30;5.70;;;;;;;13.44;100.00;99757.59;4985070;28;20180;-63
2022/09/10 04:12:45;;;;;;;10.10;6.47;;;;;;;13.39;100.00;99756.16;5003597;28;20652;-64
2022/09/10 04:15:12;;;;;;;7.83;6.27;;;;;;;13.54;100.00;99758.56;4987997;28;20343;-63
2022/09/10 04:17:37;;;;;;;7.57;6.20;;;;;;;13.52;100.00;99755.28;4988427;28;20211;-62
2022/09/10 04:20:02;;;;;;;9.33;6.13;;;;;;;13.59;100.00;99760.84;4987873;28;20274;-64
2022/09/10 04:22:28;;;;;;;7.33;6.07;;;;;;;13.55;100.00;99755.06;4984941;28;20196;-62
2022/09/10 04:24:54;;;;;;;12.53;6.83;;;;;;;13.59;100.00;99753.09;4990041;28;20297;-63
2022/09/10 04:27:21;;;;;;;12.57;6.70;;;;;;;13.64;100.00;99751.78;5001488;28;20680;-64
2022/09/10 04:29:46;;;;;;;8.47;6.47;;;;;;;13.59;100.00;99747.91;4988521;28;20212;-63
2022/09/10 04:32:11;;;;;;;7.23;6.53;;;;;;;13.64;100.00;99753.56;4980712;28;20297;-62
2022/09/10 04:34:36;;;;;;;7.90;6.27;;;;;;;13.55;100.00;99760.22;4991122;28;20180;-62
2022/09/10 04:37:02;;;;;;;10.73;6.10;;;;;;;13.52;100.00;99752.69;4992173;28;20572;-62
2022/09/10 04:39:27;;;;;;;7.97;6.53;;;;;;;13.52;100.00;99744.94;5002856;28;20611;-62
2022/09/10 04:41:52;;;;;;;7.53;6.67;;;;;;;13.68;100.00;99749.81;4981038;28;20803;-62
2022/09/10 04:44:18;;;;;;;7.03;6.43;;;;;;;13.76;100.00;99757.03;4992115;28;20218;-62
2022/09/10 04:46:44;;;;;;;10.13;6.50;;;;;;;13.71;100.00;99765.09;4992113;28;20183;-62
2022/09/10 04:49:10;;;;;;;7.70;7.00;;;;;;;13.78;100.00;99761.16;4991945;28;20183;-63
2022/09/10 04:51:35;;;;;;;10.50;6.83;;;;;;;13.88;100.00;99759.53;4984481;28;20233;-63
2022/09/10 04:54:00;;;;;;;7.73;6.20;;;;;;;13.86;100.00;99753.63;4991051;28;20274;-67
2022/09/10 04:56:26;;;;;;;6.17;5.67;;;;;;;13.84;100.00;99758.09;4991666;28;20183;-63
2022/09/10 04:58:51;;;;;;;7.37;6.37;;;;;;;14.00;100.00;99768.16;4991631;28;20606;-62
2022/09/10 05:01:17;;;;;;;12.00;6.70;;;;;;;14.07;100.00;99765.09;4992360;28;20237;-63
2022/09/10 05:03:42;;;;;;;10.13;7.00;;;;;;;14.00;100.00;99762.97;4993618;28;20551;-62
2022/09/10 05:06:08;;;;;;;11.00;6.97;;;;;;;14.06;100.00;99759.09;4992160;28;20197;-62
2022/09/10 05:08:33;;;;;;;7.43;6.30;;;;;;;14.01;100.00;99764.59;4993384;28;20168;-63
2022/09/10 05:11:01;;;;;;;6.80;6.20;;;;;;;14.00;100.00;99760.38;4981044;28;20246;-63
2022/09/10 05:13:27;;;;;;;7.83;6.40;;;;;;;13.97;100.00;99759.78;4987624;28;20232;-63
2022/09/10 05:15:53;;;;;;;7.40;6.70;;;;;;;14.02;100.00;99762.84;4993254;28;20179;-63
2022/09/10 05:18:18;;;;;;;9.00;6.63;;;;;;;14.07;100.00;99754.75;4991507;28;20191;-62
2022/09/10 05:20:43;;;;;;;7.57;6.80;;;;;;;13.98;100.00;99757.06;4987914;28;20254;-62
2022/09/10 05:23:09;;;;;;;9.37;6.17;;;;;;;13.97;100.00;99757.19;5002140;28;20215;-62
2022/09/10 05:25:34;;;;;;;8.53;6.10;;;;;;;14.01;100.00;99761.19;4991810;28;20273;-63
2022/09/10 05:28:00;;;;;;;6.47;5.93;;;;;;;14.12;100.00;99763.00;4987945;28;20208;-63
2022/09/10 05:30:26;;;;;;;7.00;6.30;;;;;;;14.09;100.00;99748.53;4985137;28;20642;-63
2022/09/10 05:32:52;;;;;;;7.93;5.90;;;;;;;14.23;100.00;99760.41;4997953;28;20195;-62
2022/09/10 05:35:17;;;;;;;6.30;5.70;;;;;;;14.26;100.00;99765.34;4987432;28;20674;-62
2022/09/10 05:37:44;;;;;;;8.80;5.77;;;;;;;14.12;100.00;99756.03;4978072;28;20179;-62
2022/09/10 05:40:13;;;;;;;9.10;5.80;;;;;;;13.97;100.00;99758.00;4980232;28;20234;-63
2022/09/10 05:42:38;;;;;;;6.13;5.20;;;;;;;13.99;100.00;99770.81;4987325;28;20697;-62
2022/09/10 05:45:04;;;;;;;5.53;4.30;;;;;;;13.82;100.00;99767.72;4990382;28;20210;-63
2022/09/10 05:47:29;;;;;;;5.30;4.90;;;;;;;13.87;100.00;99765.63;4991202;28;20860;-63
2022/09/10 05:49:55;;;;;;;7.80;5.10;;;;;;;13.99;100.00;99770.81;4992122;28;20674;-63
2022/09/10 05:52:20;;;;;;;8.63;4.63;;;;;;;13.99;100.00;99769.06;4976579;28;20368;-63
2022/09/10 05:54:45;;;;;;;8.70;4.80;;;;;;;13.98;100.00;99776.94;4989365;28;20245;-64
2022/09/10 05:57:11;;;;;;;5.80;4.10;;;;;;;14.05;100.00;99775.53;4987734;28;20192;-63
2022/09/10 05:59:36;;;;;;;6.67;4.33;;;;;;;14.07;100.00;99772.88;4989163;28;20206;-63
2022/09/10 06:02:02;;;;;;;7.67;4.10;;;;;;;14.05;100.00;99775.53;4996592;28;20222;-63
2022/09/10 06:04:27;;;;;;;8.70;4.50;;;;;;;14.15;100.00;99780.84;4989924;28;20211;-63
2022/09/10 06:06:53;;;;;;;9.33;4.47;;;;;;;14.21;100.00;99777.81;4989714;28;20270;-63
2022/09/10 06:09:19;;;;;;;8.80;3.93;;;;;;;14.23;100.00;99778.53;4991825;28;20172;-64
2022/09/10 06:11:47;;;;;;;5.17;3.47;;;;;;;14.26;100.00;99780.06;4994923;28;20320;-62
2022/09/10 06:14:16;;;;;;;4.87;3.20;;;;;;;14.33;100.00;99781.25;4991567;28;20262;-62
2022/09/10 06:16:41;;;;;;;4.90;2.80;;;;;;;14.29;100.00;99790.16;4990739;28;20266;-62
2022/09/10 06:19:07;;;;;;;5.13;2.87;;;;;;;14.22;100.00;99789.81;4991660;28;20270;-62
2022/09/10 06:21:32;;;;;;;4.73;2.90;;;;;;;14.26;100.00;99798.97;4996060;28;20230;-62
2022/09/10 06:23:58;;;;;;;8.00;3.30;;;;;;;14.33;100.00;99800.16;4990474;28;20202;-66
2022/09/10 06:26:24;;;;;;;4.70;2.90;;;;;;;14.33;100.00;99800.16;4991551;28;20199;-62
2022/09/10 06:28:49;;;;;;;5.13;3.50;;;;;;;14.41;100.00;99809.94;4991633;28;20976;-62
2022/09/10 06:31:18;;;;;;;7.87;3.77;;;;;;;14.49;100.00;99812.78;4987649;28;20258;-63
2022/09/10 06:33:45;;;;;;;7.53;5.67;;;;;;;14.46;100.00;99807.00;4996445;28;20180;-63
2022/09/10 06:36:12;;;;;;;6.17;4.57;;;;;;;14.40;100.00;99813.50;4992575;28;20179;-63
2022/09/10 06:38:37;;;;;;;7.00;4.27;;;;;;;14.51;100.00;99810.91;4989137;28;20183;-63
2022/09/10 06:41:05;;;;;;;4.07;3.53;;;;;;;14.47;100.00;99806.06;4979752;28;20281;-64
2022/09/10 06:43:33;;;;;;;5.57;3.00;;;;;;;14.41;100.00;99807.34;4995199;28;20219;-64
2022/09/10 06:45:58;;;;;;;6.33;3.20;;;;;;;14.56;100.00;99813.13;4985892;28;20666;-63
2022/09/10 06:48:27;;;;;;;3.67;2.80;;;;;;;14.55;100.00;99808.91;4985276;28;20191;-63
2022/09/10 06:50:54;;;;;;;4.00;2.60;;;;;;;14.64;100.00;99803.03;4978694;28;20307;-63
2022/09/10 06:53:21;;;;;;;2.87;2.50;;;;;;;14.71;100.00;99815.53;4978632;28;20634;-64
2022/09/10 06:55:50;;;;;;;2.53;2.07;;;;;;;14.71;100.00;99808.59;4988723;28;20180;-63
2022/09/10 06:58:16;;;;;;;4.10;2.70;;;;;;;14.77;100.00;99807.28;4990944;28;20191;-63
2022/09/10 07:00:42;;;;;;;2.20;2.00;;;;;;;14.77;100.00;99809.88;4969949;28;20273;-63
2022/09/10 07:03:08;;;;;;;5.23;2.10;;;;;;;14.87;100.00;99808.22;4993854;28;20231;-63
2022/09/10 07:05:34;;;;;;;6.07;2.40;;;;;;;14.92;100.00;99818.22;4989021;28;20176;-63
2022/09/10 07:08:00;;;;;;;6.40;2.63;;;;;;;15.00;100.00;99823.66;4991024;28;20254;-63
2022/09/10 07:10:27;;;;;;;3.30;2.43;;;;;;;15.19;100.00;99817.84;4984882;28;20234;-64
2022/09/10 07:12:52;;;;;;;3.27;2.10;;;;;;;15.31;100.00;99816.88;5001216;28;20194;-63
2022/09/10 07:15:17;;;;;;;4.00;2.27;;;;;;;15.33;100.00;99815.00;4983688;28;20259;-63
2022/09/10 07:17:43;;;;;;;2.33;1.67;;;;;;;15.59;100.00;99813.84;5005160;28;20197;-63
2022/09/10 07:20:08;;;;;;;3.00;1.80;;;;;;;15.63;100.00;99813.50;4985605;28;20552;-63
2022/09/10 07:22:33;;;;;;;2.43;2.00;;;;;;;15.79;100.00;99815.69;4998309;28;20206;-66
2022/09/10 07:24:59;;;;;;;2.37;1.77;;;;;;;15.71;100.00;99818.06;4992123;28;20301;-63
2022/09/10 07:27:24;;;;;;;2.77;1.40;;;;;;;15.42;100.00;99810.03;5006756;28;20238;-62
2022/09/10 07:29:50;;;;;;;5.03;1.83;;;;;;;15.72;100.00;99818.91;4993193;28;20187;-63
2022/09/10 07:32:16;;;;;;;1.80;1.60;;;;;;;16.04;100.00;99821.50;4963099;28;20231;-64
2022/09/10 07:34:41;;;;;;;5.93;1.80;;;;;;;16.13;100.00;99819.91;4997144;28;20710;-63
2022/09/10 07:37:07;;;;;;;2.93;1.60;;;;;;;16.29;100.00;99819.47;4994573;28;20187;-63
2022/09/10 07:39:32;;;;;;;6.27;1.70;;;;;;;16.48;100.00;99823.94;5007387;28;20227;-63
2022/09/10 07:41:59;;;;;;;5.23;1.90;;;;;;;16.59;100.00;99823.03;4982669;28;20227;-64
2022/09/10 07:44:24;;;;;;;3.57;2.07;;;;;;;16.77;100.00;99831.88;4986517;28;20296;-63
2022/09/10 07:46:51;;;;;;;2.13;1.40;;;;;;;17.12;100.00;99826.41;5008187;28;20278;-62
2022/09/10 07:49:17;;;;;;;2.10;1.60;;;;;;;17.63;100.00;99821.97;4989115;28;20242;-63
2022/09/10 07:51:42;;;;;;;3.33;1.50;;;;;;;18.01;100.00;99817.75;4995789;28;20223;-62
2022/09/10 07:54:07;;;;;;;2.50;1.50;;;;;;;19.10;100.00;99813.84;4992725;28;20184;-63
2022/09/10 07:56:33;;;;;;;2.90;1.30;;;;;;;21.45;100.00;99812.25;4993023;28;20195;-63
2022/09/10 07:58:58;;;;;;;1.50;0.83;;;;;;;23.12;92.78;99813.59;4990096;28;20237;-63
2022/09/10 08:01:24;;;;;;;3.00;1.00;;;;;;;22.85;87.08;99820.94;4991430;28;20234;-63
2022/09/10 08:03:49;;;;;;;2.60;1.33;;;;;;;21.98;94.01;99817.22;4997564;28;20343;-63
2022/09/10 08:06:15;;;;;;;3.27;1.40;;;;;;;21.74;98.51;99818.03;4992934;28;20191;-63
2022/09/10 08:08:41;;;;;;;5.33;1.47;;;;;;;20.41;100.00;99827.19;4992758;28;20182;-63
2022/09/10 08:11:10;;;;;;;3.03;1.30;;;;;;;19.97;100.00;99825.44;4992799;28;20260;-62
2022/09/10 08:13:36;;;;;;;3.20;1.30;;;;;;;19.68;100.00;99821.28;4998360;28;20746;-63
2022/09/10 08:16:10;;;;;;;5.40;1.70;;;;;;;19.11;100.00;99833.72;5002729;28;20235;-62
2022/09/10 08:18:36;;;;;;;3.53;1.57;;;;;;;18.95;100.00;99832.59;4993139;28;20228;-63
2022/09/10 08:21:03;;;;;;;4.43;1.40;;;;;;;18.91;100.00;99840.84;4991726;28;20230;-62
2022/09/10 08:23:29;;;;;;;5.30;1.70;;;;;;;18.97;100.00;99838.47;4989730;28;20350;-62
2022/09/10 08:25:54;;;;;;;4.67;1.57;;;;;;;18.76;100.00;99833.44;4991027;28;20286;-62
2022/09/10 08:28:21;;;;;;;5.07;1.60;;;;;;;18.59;100.00;99839.41;4989771;28;20203;-62
2022/09/10 08:31:00;;;;;;;2.50;1.40;;;;;;;18.28;100.00;99845.66;4987831;28;20230;-62
2022/09/10 08:33:26;;;;;;;5.30;1.43;;;;;;;18.37;100.00;99842.22;5001171;28;20677;-62
2022/09/10 08:35:55;;;;;;;5.53;1.73;;;;;;;18.25;100.00;99842.53;5008412;28;20205;-63
2022/09/10 08:38:21;;;;;;;3.93;1.80;;;;;;;18.30;100.00;99843.72;4996162;28;20222;-64
2022/09/10 08:40:47;;;;;;;4.83;1.87;;;;;;;18.23;100.00;99843.47;4987662;28;20707;-62
2022/09/10 08:43:14;;;;;;;6.03;1.90;;;;;;;18.04;100.00;99846.09;5000702;28;20192;-63
2022/09/10 08:45:46;;;;;;;6.27;1.93;;;;;;;17.90;100.00;99847.31;4989331;28;20180;-62
2022/09/10 08:48:22;;;;;;;5.50;1.90;;;;;;;18.11;100.00;99842.00;4992015;28;20175;-63
2022/09/10 08:50:55;;;;;;;5.67;2.23;;;;;;;18.38;100.00;99843.88;4986182;28;20725;-62
2022/09/10 08:53:30;;;;;;;7.67;2.10;;;;;;;18.48;100.00;99843.84;4993268;28;20184;-63
2022/09/10 08:56:02;;;;;;;4.83;1.80;;;;;;;18.27;100.00;99845.78;4992389;28;20210;-63
2022/09/10 08:58:50;;;;;;;4.17;1.30;;;;;;;17.96;100.00;99845.97;4992887;28;20179;-63
2022/09/10 09:01:39;;;;;;;6.70;2.13;;;;;;;17.96;100.00;99858.97;4991274;28;20610;-63
2022/09/10 09:04:15;;;;;;;10.20;1.77;;;;;;;17.97;100.00;99845.00;4985697;28;20195;-63
2022/09/10 09:06:47;;;;;;;5.87;1.70;;;;;;;17.98;100.00;99851.84;4991242;28;20286;-63
2022/09/10 09:09:12;;;;;;;5.57;1.50;;;;;;;18.20;100.00;99858.56;5005461;28;20183;-63
2022/09/10 09:11:46;;;;;;;4.70;1.83;;;;;;;17.86;100.00;99859.78;4990148;28;20318;-63
2022/09/10 09:15:03;;;;;;;8.57;1.93;;;;;;;17.93;100.00;99862.63;4987835;28;20356;-63
2022/09/10 09:17:37;;;;;;;8.37;1.90;;;;;;;17.65;100.00;99859.91;4979076;28;20528;-62
2022/09/10 09:20:14;;;;;;;5.93;1.83;;;;;;;17.55;100.00;99859.06;4989741;28;20555;-63
2022/09/10 09:22:52;;;;;;;4.47;1.57;;;;;;;17.41;100.00;99862.88;4986416;28;20246;-62
2022/09/10 09:25:23;;;;;;;6.50;1.67;;;;;;;17.62;100.00;99870.56;4986096;28;20215;-61
2022/09/10 09:27:56;;;;;;;6.10;1.60;;;;;;;17.52;100.00;99861.94;5008105;28;20194;-62
2022/09/10 09:30:36;;;;;;;5.40;1.70;;;;;;;17.40;100.00;99872.47;4982821;28;20193;-61
2022/09/10 09:33:12;;;;;;;4.80;1.70;;;;;;;17.47;100.00;99859.72;5000914;28;20198;-61
2022/09/10 09:35:56;;;;;;;6.13;1.83;;;;;;;17.63;100.00;99866.19;4993992;28;20183;-61
2022/09/10 09:38:31;;;;;;;4.07;1.67;;;;;;;17.53;100.00;99873.97;4977126;28;20183;-61
2022/09/10 09:41:03;;;;;;;5.90;1.57;;;;;;;17.01;100.00;99872.31;4986921;28;20724;-61
2022/09/10 09:43:37;;;;;;;2.97;1.23;;;;;;;16.82;100.00;99880.00;4998867;28;20196;-60
2022/09/10 09:46:14;;;;;;;6.60;2.10;;;;;;;16.80;100.00;99879.31;4990000;28;20191;-61
2022/09/10 09:48:41;;;;;;;5.70;2.13;;;;;;;16.88;100.00;99876.88;4979545;28;20229;-60
2022/09/10 09:51:10;;;;;;;4.87;1.70;;;;;;;17.22;100.00;99880.06;4986990;28;20309;-61
2022/09/10 09:53:36;;;;;;;6.17;1.60;;;;;;;17.39;100.00;99877.75;4982625;28;20187;-62
2022/09/10 09:56:18;;;;;;;5.97;1.73;;;;;;;17.59;100.00;99882.06;4989160;28;20658;-60
2022/09/10 09:58:48;;;;;;;7.07;2.07;;;;;;;17.79;100.00;99876.88;4991215;28;20179;-60
2022/09/10 10:01:19;;;;;;;5.30;1.83;;;;;;;18.22;100.00;99869.63;4989355;28;20672;-61
2022/09/10 10:03:53;;;;;;;7.10;2.00;;;;;;;18.38;100.00;99863.84;4988350;28;20207;-60
2022/09/10 10:06:24;;;;;;;5.80;1.97;;;;;;;18.43;100.00;99872.09;4986065;28;20194;-61
2022/09/10 10:09:19;;;;;;;9.27;1.90;;;;;;;18.87;100.00;99867.13;4991433;28;20189;-61
2022/09/10 10:11:50;;;;;;;2.67;1.30;;;;;;;19.16;100.00;99868.84;4993067;28;20276;-62
2022/09/10 10:14:21;;;;;;;4.70;1.23;;;;;;;19.11;100.00;99870.22;4986375;28;20258;-62
2022/09/10 10:16:53;;;;;;;6.67;1.60;;;;;;;19.08;100.00;99865.31;4988399;28;20180;-60
2022/09/10 10:19:35;;;;;;;3.70;1.23;;;;;;;19.09;100.00;99864.34;4987807;28;20693;-61
2022/09/10 10:22:19;;;;;;;3.60;1.30;;;;;;;19.70;100.00;99855.03;4980627;28;20238;-62
2022/09/10 10:24:47;;;;;;;5.53;1.20;;;;;;;20.21;100.00;99860.53;4997368;28;20308;-61
2022/09/10 10:27:34;;;;;;;4.37;1.30;;;;;;;20.58;99.66;99859.47;4989887;28;20187;-62
2022/09/10 10:30:15;;;;;;;2.43;0.90;;;;;;;20.10;95.83;99851.16;4991319;28;20206;-62
2022/09/10 10:32:46;;;;;;;6.53;1.30;;;;;;;20.54;98.79;99857.31;4980055;28;20219;-62
2022/09/10 10:35:43;;;;;;;3.90;1.13;;;;;;;21.03;92.61;99846.31;4984473;28;20188;-62
2022/09/10 10:38:35;;;;;;;4.30;1.33;;;;;;;21.10;91.25;99852.56;4997851;28;20279;-62
2022/09/10 10:41:10;;;;;;;3.43;1.10;;;;;;;21.33;88.52;99846.72;4976580;28;20238;-62
2022/09/10 10:43:57;;;;;;;5.40;1.30;;;;;;;20.91;89.57;99845.78;4988189;28;20207;-62
2022/09/10 10:46:47;;;;;;;4.03;1.20;;;;;;;20.94;94.72;99850.69;4983433;28;20200;-62
2022/09/10 10:49:47;;;;;;;2.63;1.03;;;;;;;20.66;94.39;99855.28;4981596;28;20187;-62
2022/09/10 10:52:24;;;;;;;1.47;0.83;;;;;;;20.45;95.27;99859.91;4998113;28;20222;-62
2022/09/10 10:55:04;;;;;;;3.70;1.00;;;;;;;20.22;99.89;99849.13;4989754;28;20246;-62
2022/09/10 10:57:57;;;;;;;3.17;0.93;;;;;;;20.55;100.00;99843.28;4995630;28;20192;-63
2022/09/10 11:00:23;;;;;;;2.60;1.10;;;;;;;20.96;93.67;99846.13;4964560;28;20217;-62
2022/09/10 11:03:05;;;;;;;5.00;1.20;;;;;;;20.87;92.88;99836.63;5000129;28;20235;-62
2022/09/10 11:05:40;;;;;;;3.33;1.27;;;;;;;20.42;95.04;99830.66;4987379;28;20180;-63
2022/09/10 11:08:24;;;;;;;2.13;1.17;;;;;;;20.58;98.12;99835.97;4982492;28;20279;-62
2022/09/10 11:11:21;;;;;;;4.60;1.03;;;;;;;20.77;93.05;99831.50;4987810;28;20301;-62
2022/09/10 11:13:53;;;;;;;4.40;0.80;;;;;;;21.35;90.57;99829.91;4995885;28;20230;-62
2022/09/10 11:16:24;;;;;;;1.93;0.83;;;;;;;21.41;89.52;99834.50;4987166;28;20227;-62
2022/09/10 11:19:01;;;;;;;1.73;0.90;;;;;;;21.12;92.35;99833.13;4988036;28;20187;-62
2022/09/10 11:21:36;;;;;;;2.53;0.90;;;;;;;20.85;93.14;99830.72;4983529;28;20238;-63
2022/09/10 11:24:13;;;;;;;3.20;0.70;;;;;;;20.88;94.50;99833.03;4995954;28;20214;-62
2022/09/10 11:26:58;;;;;;;1.20;0.57;;;;;;;21.07;91.94;99829.34;4990559;28;20213;-62
2022/09/10 11:29:43;;;;;;;1.83;0.70;;;;;;;20.91;89.57;99827.47;4989478;28;20195;-63
2022/09/10 11:32:41;;;;;;;0.83;0.70;;;;;;;20.98;87.54;99819.84;4979153;28;20226;-63
2022/09/10 11:35:12;;;;;;;3.33;2.70;;;;;;;20.73;87.58;99820.53;5015697;28;20622;-62
2022/09/10 11:38:17;;;;;;;0.70;0.67;;;;;;;20.80;88.53;99821.56;5011178;28;20191;-62
2022/09/10 11:40:51;;;;;;;0.80;0.50;;;;;;;21.17;88.07;99818.75;4981456;28;20771;-62